createdAt,value
2023-05-05T00:01:03.459Z,52.49
2023-05-05T00:03:35.840Z,52.47
2023-05-05T00:06:05.774Z,52.56
2023-05-05T00:08:33.947Z,52.81
2023-05-05T00:11:01.960Z,53.09
2023-05-05T00:13:29.682Z,53.40
2023-05-05T00:15:57.881Z,53.38
2023-05-05T00:18:25.769Z,53.54
2023-05-05T00:20:53.841Z,55.13
2023-05-05T00:23:22.100Z,54.93
2023-05-05T00:25:50.170Z,54.15
2023-05-05T00:28:18.279Z,56.72
2023-05-05T00:30:46.810Z,54.82
2023-05-05T00:33:15.033Z,54.07
2023-05-05T00:35:43.116Z,54.09
2023-05-05T00:38:11.509Z,54.58
2023-05-05T00:40:39.589Z,55.40
2023-05-05T00:43:07.996Z,56.91
2023-05-05T00:45:37.876Z,63.00
2023-05-05T00:48:06.612Z,58.79
2023-05-05T00:50:35.469Z,57.83
2023-05-05T00:53:06.944Z,58.81
2023-05-05T00:55:35.809Z,66.69
2023-05-05T00:58:04.820Z,69.84
2023-05-05T01:00:32.857Z,72.08
2023-05-05T01:03:01.112Z,70.97
2023-05-05T01:05:37.744Z,67.40
2023-05-05T01:08:24.293Z,70.16
2023-05-05T01:10:59.315Z,72.31
2023-05-05T01:13:56.490Z,71.96
2023-05-05T01:16:29.629Z,64.87
2023-05-05T01:19:19.395Z,62.82
2023-05-05T01:21:54.428Z,60.76
2023-05-05T01:24:46.319Z,58.65
2023-05-05T01:27:34.473Z,57.24
2023-05-05T01:30:17.573Z,56.75
2023-05-05T01:32:52.458Z,56.36
2023-05-05T01:35:28.574Z,56.77
2023-05-05T01:38:08.534Z,61.83
2023-05-05T01:40:52.166Z,64.41
2023-05-05T01:43:23.811Z,61.48
2023-05-05T01:45:53.428Z,62.66
2023-05-05T01:48:24.979Z,59.64
2023-05-05T01:50:54.546Z,63.49
2023-05-05T01:53:26.148Z,58.89
2023-05-05T01:55:55.628Z,57.21
2023-05-05T01:58:27.230Z,59.19
2023-05-05T02:00:58.294Z,58.62
2023-05-05T02:03:28.239Z,57.16
2023-05-05T02:05:58.689Z,56.52
2023-05-05T02:08:28.572Z,56.62
2023-05-05T02:10:56.730Z,60.57
2023-05-05T02:13:26.399Z,66.02
2023-05-05T02:15:56.253Z,73.06
2023-05-05T02:18:26.460Z,77.06
2023-05-05T02:20:54.592Z,71.33
2023-05-05T02:23:22.561Z,64.40
2023-05-05T02:25:55.846Z,61.70
2023-05-05T02:28:44.189Z,60.78
2023-05-05T02:31:14.282Z,60.53
2023-05-05T02:33:44.794Z,58.86
2023-05-05T02:36:22.478Z,60.69
2023-05-05T02:38:56.634Z,58.03
2023-05-05T02:41:27.374Z,57.01
2023-05-05T02:43:57.247Z,56.36
2023-05-05T02:46:28.932Z,57.95
2023-05-05T02:49:00.027Z,62.01
2023-05-05T02:51:29.183Z,63.33
2023-05-05T02:53:57.719Z,64.85
2023-05-05T02:56:43.095Z,70.55
2023-05-05T02:59:49.033Z,68.47
2023-05-05T03:03:05.033Z,71.92
2023-05-05T03:06:10.103Z,61.93
2023-05-05T03:08:50.132Z,65.41
2023-05-05T03:11:33.504Z,59.82
2023-05-05T03:14:12.159Z,57.73
2023-05-05T03:16:43.040Z,60.87
2023-05-05T03:19:13.524Z,57.56
2023-05-05T03:21:42.792Z,58.98
2023-05-05T03:24:18.088Z,57.81
2023-05-05T03:26:49.351Z,58.54
2023-05-05T03:29:18.806Z,65.19
2023-05-05T03:31:47.483Z,58.44
2023-05-05T03:34:16.161Z,61.41
2023-05-05T03:36:44.679Z,64.52
2023-05-05T03:39:13.200Z,61.48
2023-05-05T03:41:53.424Z,62.29
2023-05-05T03:44:22.230Z,61.70
2023-05-05T03:46:50.257Z,66.65
2023-05-05T03:49:18.921Z,64.49
2023-05-05T03:51:56.855Z,56.61
2023-05-05T03:54:25.333Z,59.32
2023-05-05T03:56:53.617Z,56.21
2023-05-05T03:59:21.467Z,60.44
2023-05-05T04:01:50.342Z,56.96
2023-05-05T04:04:18.721Z,54.50
2023-05-05T04:06:58.348Z,54.25
2023-05-05T04:09:44.927Z,55.71
2023-05-05T04:12:13.320Z,53.88
2023-05-05T04:14:41.909Z,58.00
2023-05-05T04:17:10.608Z,55.08
2023-05-05T04:19:39.061Z,54.73
2023-05-05T04:22:08.444Z,58.34
2023-05-05T04:24:36.926Z,56.36
2023-05-05T04:27:04.923Z,56.62
2023-05-05T04:29:33.326Z,56.81
2023-05-05T04:32:01.584Z,58.25
2023-05-05T04:34:30.030Z,55.47
2023-05-05T04:36:58.284Z,56.94
2023-05-05T04:39:26.827Z,53.73
2023-05-05T04:41:54.903Z,54.86
2023-05-05T04:44:23.362Z,54.44
2023-05-05T04:46:54.762Z,57.67
2023-05-05T04:49:23.485Z,56.81
2023-05-05T04:51:51.503Z,57.17
2023-05-05T04:54:19.431Z,56.58
2023-05-05T04:56:48.202Z,57.22
2023-05-05T04:59:16.609Z,51.76
2023-05-05T05:01:45.148Z,52.94
2023-05-05T05:04:14.107Z,52.09
2023-05-05T05:06:42.094Z,50.60
2023-05-05T05:09:09.914Z,50.29
2023-05-05T05:11:38.164Z,52.40
2023-05-05T05:14:06.049Z,50.49
2023-05-05T05:16:34.471Z,50.68
2023-05-05T05:19:03.024Z,49.59
2023-05-05T05:21:32.113Z,50.12
2023-05-05T05:24:00.288Z,52.37
2023-05-05T05:26:28.754Z,52.14
2023-05-05T05:28:56.779Z,51.31
2023-05-05T05:31:24.898Z,53.63
2023-05-05T05:33:53.193Z,50.55
2023-05-05T05:36:21.214Z,48.95
2023-05-05T05:38:49.291Z,48.67
2023-05-05T05:41:17.881Z,48.61
2023-05-05T05:43:46.140Z,49.05
2023-05-05T05:46:14.504Z,48.94
2023-05-05T05:48:43.473Z,49.68
2023-05-05T05:51:11.280Z,48.61
2023-05-05T05:53:39.372Z,48.42
2023-05-05T05:56:09.432Z,48.39
2023-05-05T05:58:37.352Z,46.91
2023-05-05T06:01:05.569Z,49.78
2023-05-05T06:03:33.940Z,47.98
2023-05-05T06:06:02.127Z,46.88
2023-05-05T06:08:30.487Z,50.00
2023-05-05T06:11:00.850Z,44.38
2023-05-05T06:13:28.627Z,45.95
2023-05-05T06:15:56.524Z,45.59
2023-05-05T06:18:25.288Z,46.26
2023-05-05T06:20:53.186Z,45.30
2023-05-05T06:23:21.628Z,43.37
2023-05-05T06:25:51.137Z,46.95
2023-05-05T06:28:19.081Z,43.02
2023-05-05T06:30:46.856Z,50.83
2023-05-05T06:33:15.245Z,45.04
2023-05-05T06:35:43.340Z,44.54
2023-05-05T06:38:23.295Z,46.73
2023-05-05T06:40:51.680Z,44.23
2023-05-05T06:43:19.539Z,40.52
2023-05-05T06:45:47.729Z,47.66
2023-05-05T06:48:16.065Z,48.53
2023-05-05T06:50:43.973Z,47.83
2023-05-05T06:53:11.941Z,43.44
2023-05-05T06:55:45.497Z,45.27
2023-05-05T06:58:13.536Z,48.13
2023-05-05T07:00:42.519Z,50.05
2023-05-05T07:03:10.686Z,49.71
2023-05-05T07:05:38.601Z,50.03
2023-05-05T07:08:09.353Z,55.38
2023-05-05T07:10:37.506Z,52.34
2023-05-05T07:13:08.492Z,49.02
2023-05-05T07:15:36.692Z,50.83
2023-05-05T07:18:04.916Z,50.60
2023-05-05T07:20:33.299Z,46.25
2023-05-05T07:23:01.154Z,47.79
2023-05-05T07:25:40.654Z,50.60
2023-05-05T07:28:09.214Z,52.86
2023-05-05T07:30:37.222Z,55.82
2023-05-05T07:33:05.204Z,47.56
2023-05-05T07:35:33.547Z,51.01
2023-05-05T07:38:01.432Z,54.31
2023-05-05T07:40:29.197Z,53.73
2023-05-05T07:42:57.438Z,53.41
2023-05-05T07:45:25.217Z,52.31
2023-05-05T07:47:53.187Z,53.41
2023-05-05T07:50:21.697Z,54.43
2023-05-05T07:52:53.954Z,48.82
2023-05-05T07:55:30.432Z,48.21
2023-05-05T07:57:58.176Z,54.39
2023-05-05T08:00:26.149Z,51.47
2023-05-05T08:02:54.763Z,49.57
2023-05-05T08:05:22.827Z,51.12
2023-05-05T08:07:50.832Z,52.88
2023-05-05T08:10:22.648Z,50.81
2023-05-05T08:12:51.365Z,52.55
2023-05-05T08:15:20.362Z,48.90
2023-05-05T08:17:51.083Z,50.01
2023-05-05T08:20:34.904Z,45.03
2023-05-05T08:23:02.839Z,42.70
2023-05-05T08:25:31.274Z,43.87
2023-05-05T08:27:59.059Z,38.49
2023-05-05T08:30:29.093Z,38.31
2023-05-05T08:32:57.907Z,38.47
2023-05-05T08:35:25.789Z,37.00
2023-05-05T08:37:53.925Z,40.93
2023-05-05T08:40:29.589Z,43.60
2023-05-05T08:42:57.563Z,40.84
2023-05-05T08:45:28.492Z,39.71
2023-05-05T08:48:05.327Z,39.49
2023-05-05T08:50:33.956Z,36.88
2023-05-05T08:53:10.678Z,45.99
2023-05-05T08:55:55.719Z,38.61
2023-05-05T08:58:24.076Z,37.80
2023-05-05T09:00:53.017Z,39.47
2023-05-05T09:03:21.368Z,43.00
2023-05-05T09:05:51.410Z,44.62
2023-05-05T09:11:05.926Z,42.73
2023-05-05T09:13:34.258Z,47.01
2023-05-05T09:16:02.284Z,45.88
2023-05-05T09:18:30.222Z,46.59
2023-05-05T09:20:59.779Z,45.73
2023-05-05T09:23:27.721Z,44.14
2023-05-05T09:26:06.443Z,43.48
2023-05-05T09:28:34.932Z,40.36
2023-05-05T09:31:14.282Z,43.87
2023-05-05T09:33:43.856Z,45.55
2023-05-05T09:36:12.672Z,47.05
2023-05-05T09:38:40.699Z,47.21
2023-05-05T09:41:09.176Z,43.19
2023-05-05T09:43:52.277Z,55.61
2023-05-05T09:46:21.134Z,49.66
2023-05-05T09:48:49.474Z,48.62
2023-05-05T09:51:29.693Z,48.11
2023-05-05T09:53:58.170Z,45.84
2023-05-05T09:56:40.796Z,46.81
2023-05-05T09:59:09.751Z,45.64
2023-05-05T10:01:38.039Z,53.45
2023-05-05T10:04:06.445Z,39.96
2023-05-05T10:06:44.480Z,43.19
2023-05-05T10:09:12.872Z,43.50
2023-05-05T10:11:43.026Z,43.29
2023-05-05T10:14:16.578Z,43.96
2023-05-05T10:16:52.512Z,44.76
2023-05-05T10:19:22.762Z,46.67
2023-05-05T10:21:53.378Z,44.21
2023-05-05T10:24:51.818Z,45.19
2023-05-05T10:27:22.803Z,47.01
2023-05-05T10:30:07.295Z,41.36
2023-05-05T10:33:13.171Z,41.92
2023-05-05T10:35:50.341Z,46.06
2023-05-05T10:38:20.334Z,49.73
2023-05-05T10:40:49.135Z,46.05
2023-05-05T10:43:20.912Z,47.42
2023-05-05T10:45:49.666Z,50.47
2023-05-05T10:48:53.090Z,55.62
2023-05-05T10:52:20.981Z,48.29
2023-05-05T10:55:26.291Z,48.63
2023-05-05T10:57:54.906Z,45.15
2023-05-05T11:00:43.382Z,50.76
2023-05-05T11:03:21.775Z,50.98
2023-05-05T11:06:16.752Z,52.39
2023-05-05T11:08:45.263Z,56.82
2023-05-05T11:11:13.890Z,47.40
2023-05-05T11:13:42.246Z,45.02
2023-05-05T11:16:50.844Z,45.84
2023-05-05T11:19:43.396Z,48.95
2023-05-05T11:22:12.009Z,45.09
2023-05-05T11:24:42.999Z,48.20
2023-05-05T11:27:14.732Z,48.01
2023-05-05T11:30:05.271Z,48.86
2023-05-05T11:32:36.721Z,50.60
2023-05-05T11:35:06.570Z,52.02
2023-05-05T11:37:37.690Z,50.12
2023-05-05T11:40:34.433Z,47.83
2023-05-05T11:43:07.711Z,45.08
2023-05-05T11:45:36.238Z,41.96
2023-05-05T11:48:29.821Z,43.14
2023-05-05T11:50:58.472Z,42.30
2023-05-05T11:53:28.263Z,43.66
2023-05-05T11:56:13.063Z,44.21
2023-05-05T11:58:42.414Z,48.98
2023-05-05T12:01:10.679Z,43.02
2023-05-05T12:03:40.406Z,42.71
2023-05-05T12:06:09.310Z,41.10
2023-05-05T12:08:41.663Z,40.68
2023-05-05T12:11:12.089Z,41.28
2023-05-05T12:13:40.180Z,43.71
2023-05-05T12:16:13.963Z,43.92
2023-05-05T12:18:43.363Z,42.83
2023-05-05T12:21:19.322Z,41.02
2023-05-05T12:23:49.360Z,38.22
2023-05-05T12:26:29.532Z,37.51
2023-05-05T12:29:01.544Z,36.04
2023-05-05T12:31:42.062Z,38.66
2023-05-05T12:34:11.933Z,40.86
2023-05-05T12:36:41.129Z,42.41
2023-05-05T12:39:09.244Z,43.85
2023-05-05T12:41:37.939Z,44.87
2023-05-05T12:44:06.656Z,46.09
2023-05-05T12:46:56.269Z,45.94
2023-05-05T12:49:24.551Z,45.21
2023-05-05T12:51:58.262Z,41.18
2023-05-05T12:54:30.199Z,38.82
2023-05-05T12:56:59.135Z,36.45
2023-05-05T12:59:28.016Z,39.56
2023-05-05T13:01:57.980Z,39.55
2023-05-05T13:04:28.849Z,44.83
2023-05-05T13:07:17.160Z,46.72
2023-05-05T13:09:46.376Z,46.88
2023-05-05T13:12:16.935Z,52.91
2023-05-05T13:14:47.073Z,47.05
2023-05-05T13:17:15.592Z,45.69
2023-05-05T13:19:46.773Z,42.09
2023-05-05T13:22:15.152Z,37.83
2023-05-05T13:24:51.878Z,35.88
2023-05-05T13:27:21.417Z,35.50
2023-05-05T13:29:49.637Z,34.49
2023-05-05T13:32:17.478Z,38.18
2023-05-05T13:34:45.717Z,38.77
2023-05-05T13:37:13.648Z,39.30
2023-05-05T13:39:41.999Z,42.97
2023-05-05T13:42:14.994Z,42.89
2023-05-05T13:44:42.999Z,43.10
2023-05-05T13:47:11.436Z,38.10
2023-05-05T13:49:40.668Z,34.64
2023-05-05T13:52:08.926Z,33.65
2023-05-05T13:54:37.175Z,32.62
2023-05-05T13:57:05.269Z,36.46
2023-05-05T13:59:35.351Z,39.67
2023-05-05T14:02:03.793Z,44.14
2023-05-05T14:04:32.202Z,44.76
2023-05-05T14:07:01.473Z,45.54
2023-05-05T14:09:31.127Z,47.34
2023-05-05T14:11:59.439Z,46.30
2023-05-05T14:14:27.334Z,44.57
2023-05-05T14:16:56.257Z,41.21
2023-05-05T14:19:25.100Z,44.32
2023-05-05T14:21:54.045Z,45.54
2023-05-05T14:24:21.962Z,46.46
2023-05-05T14:26:50.542Z,47.31
2023-05-05T14:29:19.248Z,43.20
2023-05-05T14:31:47.439Z,41.09
2023-05-05T14:34:19.197Z,36.93
2023-05-05T14:36:47.301Z,36.68
2023-05-05T14:39:15.854Z,38.89
2023-05-05T14:41:44.780Z,43.18
2023-05-05T14:44:15.326Z,44.96
2023-05-05T14:46:45.960Z,45.44
2023-05-05T14:49:14.479Z,40.56
2023-05-05T14:51:43.126Z,35.37
2023-05-05T14:54:28.001Z,34.16
2023-05-05T14:56:57.177Z,36.61
2023-05-05T14:59:25.882Z,39.38
2023-05-05T15:01:54.109Z,37.21
2023-05-05T15:04:22.270Z,33.45
2023-05-05T15:06:50.750Z,34.29
2023-05-05T15:09:20.581Z,36.76
2023-05-05T15:11:49.216Z,38.30
2023-05-05T15:14:17.801Z,35.75
2023-05-05T15:16:47.338Z,36.13
2023-05-05T15:19:15.290Z,33.30
2023-05-05T15:21:43.604Z,33.11
2023-05-05T15:24:11.721Z,36.27
2023-05-05T15:26:39.761Z,38.32
2023-05-05T15:29:08.507Z,40.61
2023-05-05T15:31:37.800Z,41.75
2023-05-05T15:34:06.384Z,42.51
2023-05-05T15:36:34.949Z,43.16
2023-05-05T15:39:03.727Z,42.00
2023-05-05T15:41:34.653Z,36.66
2023-05-05T15:44:04.779Z,35.42
2023-05-05T15:46:36.036Z,34.33
2023-05-05T15:49:04.794Z,34.67
2023-05-05T15:51:32.911Z,30.65
2023-05-05T15:54:01.373Z,31.10
2023-05-05T15:56:30.414Z,30.85
2023-05-05T15:58:58.817Z,31.84
2023-05-05T16:01:30.170Z,31.87
2023-05-05T16:04:00.357Z,33.49
2023-05-05T16:06:28.692Z,34.06
2023-05-05T16:08:58.882Z,34.04
2023-05-05T16:11:27.780Z,33.28
2023-05-05T16:13:55.940Z,32.93
2023-05-05T16:16:23.965Z,33.82
2023-05-05T16:18:52.322Z,34.57
2023-05-05T16:21:21.039Z,34.64
2023-05-05T16:23:49.949Z,35.62
2023-05-05T16:26:30.805Z,35.69
2023-05-05T16:28:58.980Z,36.73
2023-05-05T16:31:27.649Z,37.30
2023-05-05T16:33:59.322Z,37.53
2023-05-05T16:36:28.732Z,40.39
2023-05-05T16:38:56.941Z,44.52
2023-05-05T16:41:26.293Z,45.87
2023-05-05T16:43:54.826Z,44.25
2023-05-05T16:46:22.787Z,45.37
2023-05-05T16:48:51.289Z,48.05
2023-05-05T16:51:19.697Z,46.79
2023-05-05T16:53:49.043Z,49.84
2023-05-05T16:56:18.103Z,46.85
2023-05-05T16:58:46.711Z,48.50
2023-05-05T17:01:26.748Z,49.08
2023-05-05T17:04:08.322Z,48.85
2023-05-05T17:06:36.542Z,53.99
2023-05-05T17:09:06.705Z,50.83
2023-05-05T17:11:34.588Z,51.50
2023-05-05T17:14:02.616Z,50.45
2023-05-05T17:16:31.537Z,50.41
2023-05-05T17:18:59.502Z,51.99
2023-05-05T17:21:30.888Z,51.83
2023-05-05T17:24:02.743Z,51.03
2023-05-05T17:26:31.266Z,51.85
2023-05-05T17:29:03.427Z,53.26
2023-05-05T17:31:50.904Z,50.48
2023-05-05T17:34:22.486Z,50.98
2023-05-05T17:36:50.579Z,50.05
2023-05-05T17:39:18.788Z,51.45
2023-05-05T17:41:47.555Z,50.53
2023-05-05T17:44:15.579Z,49.06
2023-05-05T17:46:43.457Z,48.76
2023-05-05T17:49:11.877Z,49.21
2023-05-05T17:51:39.970Z,49.46
2023-05-05T17:54:07.966Z,49.42
2023-05-05T17:56:37.132Z,49.52
2023-05-05T17:59:05.356Z,49.60
2023-05-05T18:01:33.626Z,49.93
2023-05-05T18:04:02.361Z,50.48
2023-05-05T18:06:30.387Z,52.19
2023-05-05T18:08:58.556Z,52.48
2023-05-05T18:11:29.302Z,52.21
2023-05-05T18:13:57.529Z,52.34
2023-05-05T18:16:25.929Z,53.35
2023-05-05T18:18:54.444Z,53.38
2023-05-05T18:21:22.907Z,52.55
2023-05-05T18:23:50.887Z,52.52
2023-05-05T18:26:19.432Z,52.24
2023-05-05T18:28:47.521Z,52.07
2023-05-05T18:31:15.775Z,52.00
2023-05-05T18:33:45.546Z,52.69
2023-05-05T18:36:16.411Z,52.70
2023-05-05T18:38:44.854Z,53.18
2023-05-05T18:41:13.101Z,53.38
2023-05-05T18:43:41.362Z,54.02
2023-05-05T18:46:10.012Z,54.70
2023-05-05T18:48:38.037Z,55.40
2023-05-05T18:51:07.112Z,55.58
2023-05-05T18:53:36.141Z,56.78
2023-05-05T18:56:04.832Z,56.73
2023-05-05T18:58:39.815Z,57.01
2023-05-05T19:01:08.926Z,56.72
2023-05-05T19:03:39.138Z,56.08
2023-05-05T19:06:08.224Z,56.11
2023-05-05T19:08:37.660Z,57.23
2023-05-05T19:11:05.677Z,59.24
2023-05-05T19:16:11.728Z,59.82
2023-05-05T19:18:40.482Z,60.18
2023-05-05T19:21:08.812Z,61.38
2023-05-05T19:23:38.924Z,59.87
2023-05-05T19:26:11.317Z,57.99
2023-05-05T19:28:40.179Z,57.19
2023-05-05T19:31:08.346Z,57.03
2023-05-05T19:33:36.976Z,57.75
2023-05-05T19:36:06.408Z,58.60
2023-05-05T19:38:34.516Z,58.46
2023-05-05T19:41:06.519Z,58.97
2023-05-05T19:43:36.881Z,60.03
2023-05-05T19:46:04.999Z,61.23
2023-05-05T19:48:33.650Z,60.86
2023-05-05T19:51:02.635Z,62.37
2023-05-05T19:53:30.768Z,62.99
2023-05-05T19:55:59.190Z,62.68
2023-05-05T19:58:27.721Z,62.80
2023-05-05T20:00:55.806Z,63.83
2023-05-05T20:03:24.301Z,64.30
2023-05-05T20:05:52.348Z,63.71
2023-05-05T20:08:20.698Z,64.43
2023-05-05T20:10:50.962Z,66.47
2023-05-05T20:13:18.964Z,65.54
2023-05-05T20:15:47.048Z,63.81
2023-05-05T20:18:15.477Z,65.44
2023-05-05T20:20:43.503Z,67.78
2023-05-05T20:23:11.547Z,65.70
2023-05-05T20:25:42.984Z,65.51
2023-05-05T20:28:11.148Z,66.19
2023-05-05T20:30:39.166Z,66.76
2023-05-05T20:33:07.725Z,70.55
2023-05-05T20:35:36.075Z,71.39
2023-05-05T20:38:05.045Z,72.01
2023-05-05T20:40:34.042Z,72.50
2023-05-05T20:43:02.054Z,70.33
2023-05-05T20:45:32.034Z,70.22
2023-05-05T20:48:01.767Z,69.84
2023-05-05T20:50:29.839Z,68.87
2023-05-05T20:52:59.306Z,70.48
2023-05-05T20:55:27.633Z,75.65
2023-05-05T20:57:55.560Z,76.85
2023-05-05T21:00:23.762Z,77.88
2023-05-05T21:02:52.688Z,77.37
2023-05-05T21:05:21.062Z,74.74
2023-05-05T21:07:49.015Z,75.10
2023-05-05T21:10:17.550Z,74.91
2023-05-05T21:12:45.630Z,71.59
2023-05-05T21:15:13.657Z,73.04
2023-05-05T21:17:42.171Z,78.03
2023-05-05T21:20:13.692Z,76.73
2023-05-05T21:22:42.426Z,75.38
2023-05-05T21:25:15.102Z,74.72
2023-05-05T21:27:43.926Z,74.21
2023-05-05T21:30:12.829Z,74.70
2023-05-05T21:32:41.642Z,74.52
2023-05-05T21:35:10.834Z,74.20
2023-05-05T21:37:39.734Z,73.15
2023-05-05T21:40:14.114Z,72.31
2023-05-05T21:42:43.625Z,70.94
2023-05-05T21:45:12.373Z,71.14
2023-05-05T21:47:40.474Z,70.56
2023-05-05T21:50:10.682Z,70.73
2023-05-05T21:52:38.953Z,70.12
2023-05-05T21:55:10.098Z,69.56
2023-05-05T21:57:38.476Z,70.34
2023-05-05T22:00:08.388Z,68.47
2023-05-05T22:02:41.124Z,69.06
2023-05-05T22:05:21.238Z,67.92
2023-05-05T22:07:49.252Z,67.33
2023-05-05T22:10:17.730Z,67.87
2023-05-05T22:12:48.368Z,66.72
2023-05-05T22:15:20.120Z,67.05
2023-05-05T22:17:48.608Z,67.81
2023-05-05T22:20:17.110Z,67.34
2023-05-05T22:22:45.112Z,67.76
2023-05-05T22:25:13.834Z,69.00
2023-05-05T22:27:42.050Z,69.25
2023-05-05T22:30:14.131Z,69.87
2023-05-05T22:32:43.796Z,69.30
2023-05-05T22:35:12.152Z,69.02
2023-05-05T22:37:42.370Z,70.57
2023-05-05T22:40:10.527Z,69.62
2023-05-05T22:42:39.473Z,70.24
2023-05-05T22:45:08.834Z,69.99
2023-05-05T22:47:37.464Z,70.12
2023-05-05T22:50:06.021Z,69.54
2023-05-05T22:52:34.623Z,69.62
2023-05-05T22:55:03.100Z,70.26
2023-05-05T22:57:31.296Z,70.18
2023-05-05T22:59:59.569Z,69.83
2023-05-05T23:02:28.482Z,70.18
2023-05-05T23:04:56.469Z,71.40
2023-05-05T23:07:24.815Z,71.71
2023-05-05T23:09:52.988Z,71.00
2023-05-05T23:12:21.120Z,71.72
2023-05-05T23:14:50.298Z,71.85
2023-05-05T23:17:18.368Z,71.02
2023-05-05T23:19:49.989Z,72.65
2023-05-05T23:22:18.279Z,71.98
2023-05-05T23:24:46.233Z,73.33
2023-05-05T23:27:14.217Z,71.85
2023-05-05T23:29:42.708Z,73.24
2023-05-05T23:32:10.732Z,73.17
2023-05-05T23:34:38.808Z,72.11
2023-05-05T23:37:07.220Z,73.69
2023-05-05T23:39:35.138Z,73.46
2023-05-05T23:42:03.090Z,72.88
2023-05-05T23:44:31.599Z,74.03
2023-05-05T23:46:59.542Z,75.34
2023-05-05T23:49:27.606Z,72.80
2023-05-05T23:51:56.073Z,74.43
2023-05-05T23:54:23.805Z,74.77
2023-05-05T23:56:51.802Z,75.05
2023-05-05T23:59:20.290Z,74.49
